sensor_id;sensor_type;location;lat;lon;timestamp;temperature;humidity
18741;DHT22;9499;52.472;13.448;2023-07-13T00:02:14;21.70;1.00
18741;DHT22;9499;52.472;13.448;2023-07-13T00:04:41;21.70;1.00
18741;DHT22;9499;52.472;13.448;2023-07-13T00:07:08;21.70;1.00
18741;DHT22;9499;52.472;13.448;2023-07-13T00:09:36;21.60;1.00
18741;DHT22;9499;52.472;13.448;2023-07-13T00:12:03;21.60;1.00
18741;DHT22;9499;52.472;13.448;2023-07-13T00:14:30;21.60;1.00
18741;DHT22;9499;52.472;13.448;2023-07-13T00:16:56;21.40;99.90
18741;DHT22;9499;52.472;13.448;2023-07-13T00:19:25;21.40;99.90
18741;DHT22;9499;52.472;13.448;2023-07-13T00:21:52;21.40;99.90
18741;DHT22;9499;52.472;13.448;2023-07-13T00:24:21;21.30;99.90
18741;DHT22;9499;52.472;13.448;2023-07-13T00:26:50;21.30;99.90
18741;DHT22;9499;52.472;13.448;2023-07-13T00:29:17;21.30;99.90
18741;DHT22;9499;52.472;13.448;2023-07-13T00:31:43;21.30;99.90
18741;DHT22;9499;52.472;13.448;2023-07-13T00:34:10;21.30;99.90
18741;DHT22;9499;52.472;13.448;2023-07-13T00:36:36;21.40;99.90
18741;DHT22;9499;52.472;13.448;2023-07-13T00:39:04;21.50;99.90
18741;DHT22;9499;52.472;13.448;2023-07-13T00:41:30;21.50;54.40
18741;DHT22;9499;52.472;13.448;2023-07-13T00:43:58;21.50;96.50
18741;DHT22;9499;52.472;13.448;2023-07-13T00:46:27;21.50;99.90
18741;DHT22;9499;52.472;13.448;2023-07-13T00:48:59;21.50;5.20
18741;DHT22;9499;52.472;13.448;2023-07-13T00:51:31;21.50;41.10
18741;DHT22;9499;52.472;13.448;2023-07-13T00:54:01;21.50;1.00
18741;DHT22;9499;52.472;13.448;2023-07-13T00:56:30;21.50;1.00
18741;DHT22;9499;52.472;13.448;2023-07-13T00:58:59;21.50;1.00
18741;DHT22;9499;52.472;13.448;2023-07-13T01:01:26;21.50;1.00
18741;DHT22;9499;52.472;13.448;2023-07-13T01:03:53;21.50;1.00
18741;DHT22;9499;52.472;13.448;2023-07-13T01:06:19;21.40;1.00
18741;DHT22;9499;52.472;13.448;2023-07-13T01:08:46;21.40;1.00
18741;DHT22;9499;52.472;13.448;2023-07-13T01:11:18;21.40;1.00
18741;DHT22;9499;52.472;13.448;2023-07-13T01:13:44;21.40;1.00
18741;DHT22;9499;52.472;13.448;2023-07-13T01:16:17;21.40;1.00
18741;DHT22;9499;52.472;13.448;2023-07-13T01:18:45;21.40;1.00
18741;DHT22;9499;52.472;13.448;2023-07-13T01:21:13;21.40;1.00
18741;DHT22;9499;52.472;13.448;2023-07-13T01:23:39;21.40;36.00
18741;DHT22;9499;52.472;13.448;2023-07-13T01:26:05;21.40;53.00
18741;DHT22;9499;52.472;13.448;2023-07-13T01:28:32;21.30;99.90
18741;DHT22;9499;52.472;13.448;2023-07-13T01:31:03;21.30;99.90
18741;DHT22;9499;52.472;13.448;2023-07-13T01:33:30;21.30;38.10
18741;DHT22;9499;52.472;13.448;2023-07-13T01:35:56;21.40;25.80
18741;DHT22;9499;52.472;13.448;2023-07-13T01:38:24;21.40;9.60
18741;DHT22;9499;52.472;13.448;2023-07-13T01:40:51;21.40;53.70
18741;DHT22;9499;52.472;13.448;2023-07-13T01:43:19;21.40;99.10
18741;DHT22;9499;52.472;13.448;2023-07-13T01:45:46;21.40;99.90
18741;DHT22;9499;52.472;13.448;2023-07-13T01:48:13;21.30;99.90
18741;DHT22;9499;52.472;13.448;2023-07-13T01:50:40;21.30;99.90
18741;DHT22;9499;52.472;13.448;2023-07-13T01:53:07;21.20;99.90
18741;DHT22;9499;52.472;13.448;2023-07-13T01:55:35;21.10;1.00
18741;DHT22;9499;52.472;13.448;2023-07-13T01:58:02;21.10;1.00
18741;DHT22;9499;52.472;13.448;2023-07-13T02:00:29;21.10;99.90
18741;DHT22;9499;52.472;13.448;2023-07-13T02:02:55;21.20;99.90
18741;DHT22;9499;52.472;13.448;2023-07-13T02:05:22;21.10;1.00
18741;DHT22;9499;52.472;13.448;2023-07-13T02:07:49;20.90;1.00
18741;DHT22;9499;52.472;13.448;2023-07-13T02:10:16;20.90;4.80
18741;DHT22;9499;52.472;13.448;2023-07-13T02:12:44;20.80;99.90
18741;DHT22;9499;52.472;13.448;2023-07-13T02:15:11;20.60;1.00
18741;DHT22;9499;52.472;13.448;2023-07-13T02:17:37;20.50;1.00
18741;DHT22;9499;52.472;13.448;2023-07-13T02:20:05;20.50;1.00
18741;DHT22;9499;52.472;13.448;2023-07-13T02:22:31;20.50;83.90
18741;DHT22;9499;52.472;13.448;2023-07-13T02:24:58;20.40;34.70
18741;DHT22;9499;52.472;13.448;2023-07-13T02:27:24;20.40;99.90
18741;DHT22;9499;52.472;13.448;2023-07-13T02:29:52;20.40;99.90
18741;DHT22;9499;52.472;13.448;2023-07-13T02:32:19;20.30;1.00
18741;DHT22;9499;52.472;13.448;2023-07-13T02:34:45;20.30;1.00
18741;DHT22;9499;52.472;13.448;2023-07-13T02:37:12;20.30;1.00
18741;DHT22;9499;52.472;13.448;2023-07-13T02:39:38;20.30;1.00
18741;DHT22;9499;52.472;13.448;2023-07-13T02:42:06;20.20;1.00
18741;DHT22;9499;52.472;13.448;2023-07-13T02:44:32;20.20;30.40
18741;DHT22;9499;52.472;13.448;2023-07-13T02:47:00;20.20;21.40
18741;DHT22;9499;52.472;13.448;2023-07-13T02:49:26;20.20;14.10
18741;DHT22;9499;52.472;13.448;2023-07-13T02:51:53;20.20;1.00
18741;DHT22;9499;52.472;13.448;2023-07-13T02:54:19;20.30;1.00
18741;DHT22;9499;52.472;13.448;2023-07-13T02:56:46;20.30;1.00
18741;DHT22;9499;52.472;13.448;2023-07-13T02:59:12;20.20;10.00
18741;DHT22;9499;52.472;13.448;2023-07-13T03:01:39;20.20;99.90
18741;DHT22;9499;52.472;13.448;2023-07-13T03:04:07;20.20;99.90
18741;DHT22;9499;52.472;13.448;2023-07-13T03:06:34;20.10;1.00
18741;DHT22;9499;52.472;13.448;2023-07-13T03:09:01;20.00;1.00
18741;DHT22;9499;52.472;13.448;2023-07-13T03:11:27;19.90;86.90
18741;DHT22;9499;52.472;13.448;2023-07-13T03:13:55;19.90;99.90
18741;DHT22;9499;52.472;13.448;2023-07-13T03:16:21;19.70;1.00
18741;DHT22;9499;52.472;13.448;2023-07-13T03:18:48;19.70;99.90
18741;DHT22;9499;52.472;13.448;2023-07-13T03:21:16;19.70;1.00
18741;DHT22;9499;52.472;13.448;2023-07-13T03:23:42;19.70;99.90
18741;DHT22;9499;52.472;13.448;2023-07-13T03:26:11;19.70;99.90
18741;DHT22;9499;52.472;13.448;2023-07-13T03:28:38;19.70;99.90
18741;DHT22;9499;52.472;13.448;2023-07-13T03:31:07;19.70;1.00
18741;DHT22;9499;52.472;13.448;2023-07-13T03:33:35;19.60;77.20
18741;DHT22;9499;52.472;13.448;2023-07-13T03:36:03;19.60;99.90
18741;DHT22;9499;52.472;13.448;2023-07-13T03:38:31;19.50;99.90
18741;DHT22;9499;52.472;13.448;2023-07-13T03:40:57;19.50;1.00
18741;DHT22;9499;52.472;13.448;2023-07-13T03:43:24;19.30;1.00
18741;DHT22;9499;52.472;13.448;2023-07-13T03:45:51;19.30;97.20
18741;DHT22;9499;52.472;13.448;2023-07-13T03:48:17;19.30;99.90
18741;DHT22;9499;52.472;13.448;2023-07-13T03:50:44;19.20;1.00
18741;DHT22;9499;52.472;13.448;2023-07-13T03:53:10;19.20;1.00
18741;DHT22;9499;52.472;13.448;2023-07-13T03:55:38;19.20;1.00
18741;DHT22;9499;52.472;13.448;2023-07-13T03:58:24;19.20;1.00
18741;DHT22;9499;52.472;13.448;2023-07-13T04:00:51;19.20;1.00
18741;DHT22;9499;52.472;13.448;2023-07-13T04:03:18;19.30;1.00
18741;DHT22;9499;52.472;13.448;2023-07-13T04:05:44;19.20;1.00
18741;DHT22;9499;52.472;13.448;2023-07-13T04:08:11;19.30;1.00
18741;DHT22;9499;52.472;13.448;2023-07-13T04:10:39;19.40;1.00
18741;DHT22;9499;52.472;13.448;2023-07-13T04:13:06;19.40;1.00
18741;DHT22;9499;52.472;13.448;2023-07-13T04:15:32;19.40;1.00
18741;DHT22;9499;52.472;13.448;2023-07-13T04:17:59;19.40;1.00
18741;DHT22;9499;52.472;13.448;2023-07-13T04:20:26;19.40;1.00
18741;DHT22;9499;52.472;13.448;2023-07-13T04:22:53;19.40;1.00
18741;DHT22;9499;52.472;13.448;2023-07-13T04:25:20;19.40;63.90
18741;DHT22;9499;52.472;13.448;2023-07-13T04:27:48;19.50;24.90
18741;DHT22;9499;52.472;13.448;2023-07-13T04:30:14;19.50;68.40
18741;DHT22;9499;52.472;13.448;2023-07-13T04:32:41;19.50;99.90
18741;DHT22;9499;52.472;13.448;2023-07-13T04:35:08;19.40;1.00
18741;DHT22;9499;52.472;13.448;2023-07-13T04:37:34;19.40;1.00
18741;DHT22;9499;52.472;13.448;2023-07-13T04:40:02;19.40;99.90
18741;DHT22;9499;52.472;13.448;2023-07-13T04:42:29;19.40;99.90
18741;DHT22;9499;52.472;13.448;2023-07-13T04:44:57;19.40;99.90
18741;DHT22;9499;52.472;13.448;2023-07-13T04:47:23;19.40;1.00
18741;DHT22;9499;52.472;13.448;2023-07-13T04:49:50;19.50;1.00
18741;DHT22;9499;52.472;13.448;2023-07-13T04:52:17;19.50;1.00
18741;DHT22;9499;52.472;13.448;2023-07-13T04:54:43;19.50;1.00
18741;DHT22;9499;52.472;13.448;2023-07-13T04:57:09;19.50;1.00
18741;DHT22;9499;52.472;13.448;2023-07-13T04:59:36;19.50;99.90
18741;DHT22;9499;52.472;13.448;2023-07-13T05:02:04;19.50;99.90
18741;DHT22;9499;52.472;13.448;2023-07-13T05:04:31;19.50;1.00
18741;DHT22;9499;52.472;13.448;2023-07-13T05:06:58;19.60;99.90
18741;DHT22;9499;52.472;13.448;2023-07-13T05:09:25;19.60;99.90
18741;DHT22;9499;52.472;13.448;2023-07-13T05:11:52;19.70;1.00
18741;DHT22;9499;52.472;13.448;2023-07-13T05:14:18;19.70;1.00
18741;DHT22;9499;52.472;13.448;2023-07-13T05:16:45;19.80;1.00
18741;DHT22;9499;52.472;13.448;2023-07-13T05:19:12;19.70;1.00
18741;DHT22;9499;52.472;13.448;2023-07-13T05:21:39;19.80;1.00
18741;DHT22;9499;52.472;13.448;2023-07-13T05:24:06;19.80;1.00
18741;DHT22;9499;52.472;13.448;2023-07-13T05:26:33;19.80;1.00
18741;DHT22;9499;52.472;13.448;2023-07-13T05:28:59;19.80;1.00
18741;DHT22;9499;52.472;13.448;2023-07-13T05:31:25;19.90;1.00
18741;DHT22;9499;52.472;13.448;2023-07-13T05:33:53;19.90;1.00
18741;DHT22;9499;52.472;13.448;2023-07-13T05:36:21;20.00;1.00
18741;DHT22;9499;52.472;13.448;2023-07-13T05:38:47;20.00;1.00
18741;DHT22;9499;52.472;13.448;2023-07-13T05:41:14;20.10;99.90
18741;DHT22;9499;52.472;13.448;2023-07-13T05:43:40;20.10;8.90
18741;DHT22;9499;52.472;13.448;2023-07-13T05:46:07;20.10;99.90
18741;DHT22;9499;52.472;13.448;2023-07-13T05:48:33;20.10;99.90
18741;DHT22;9499;52.472;13.448;2023-07-13T05:51:00;20.20;99.90
18741;DHT22;9499;52.472;13.448;2023-07-13T05:53:29;20.10;1.00
18741;DHT22;9499;52.472;13.448;2023-07-13T05:55:55;20.10;99.90
18741;DHT22;9499;52.472;13.448;2023-07-13T05:58:22;20.20;1.00
18741;DHT22;9499;52.472;13.448;2023-07-13T06:00:59;20.20;1.00
18741;DHT22;9499;52.472;13.448;2023-07-13T06:03:26;20.20;1.00
18741;DHT22;9499;52.472;13.448;2023-07-13T06:05:52;20.20;1.00
18741;DHT22;9499;52.472;13.448;2023-07-13T06:08:19;20.30;1.00
18741;DHT22;9499;52.472;13.448;2023-07-13T06:10:46;20.40;1.00
18741;DHT22;9499;52.472;13.448;2023-07-13T06:13:13;20.40;99.90
18741;DHT22;9499;52.472;13.448;2023-07-13T06:15:39;20.40;1.00
18741;DHT22;9499;52.472;13.448;2023-07-13T06:18:06;20.30;1.00
18741;DHT22;9499;52.472;13.448;2023-07-13T06:20:33;20.30;1.00
18741;DHT22;9499;52.472;13.448;2023-07-13T06:23:01;20.40;1.00
18741;DHT22;9499;52.472;13.448;2023-07-13T06:25:28;20.40;1.00
18741;DHT22;9499;52.472;13.448;2023-07-13T06:27:56;20.40;1.00
18741;DHT22;9499;52.472;13.448;2023-07-13T06:30:22;20.40;99.90
18741;DHT22;9499;52.472;13.448;2023-07-13T06:32:49;20.40;99.90
18741;DHT22;9499;52.472;13.448;2023-07-13T06:35:15;20.40;99.90
18741;DHT22;9499;52.472;13.448;2023-07-13T06:37:42;20.50;99.90
18741;DHT22;9499;52.472;13.448;2023-07-13T06:40:09;20.60;99.90
18741;DHT22;9499;52.472;13.448;2023-07-13T06:42:36;20.60;99.90
18741;DHT22;9499;52.472;13.448;2023-07-13T06:45:06;20.70;1.00
18741;DHT22;9499;52.472;13.448;2023-07-13T06:47:32;20.70;1.00
18741;DHT22;9499;52.472;13.448;2023-07-13T06:49:59;20.80;1.00
18741;DHT22;9499;52.472;13.448;2023-07-13T06:52:26;20.90;1.00
18741;DHT22;9499;52.472;13.448;2023-07-13T06:54:52;21.00;1.00
18741;DHT22;9499;52.472;13.448;2023-07-13T06:57:18;20.90;99.90
18741;DHT22;9499;52.472;13.448;2023-07-13T06:59:45;21.00;99.90
18741;DHT22;9499;52.472;13.448;2023-07-13T07:02:13;21.00;99.90
18741;DHT22;9499;52.472;13.448;2023-07-13T07:04:39;21.10;99.90
18741;DHT22;9499;52.472;13.448;2023-07-13T07:07:06;21.10;36.00
18741;DHT22;9499;52.472;13.448;2023-07-13T07:09:32;21.20;11.20
18741;DHT22;9499;52.472;13.448;2023-07-13T07:11:59;21.20;1.00
18741;DHT22;9499;52.472;13.448;2023-07-13T07:14:25;21.30;99.90
18741;DHT22;9499;52.472;13.448;2023-07-13T07:16:52;21.30;99.90
18741;DHT22;9499;52.472;13.448;2023-07-13T07:19:19;21.40;1.00
18741;DHT22;9499;52.472;13.448;2023-07-13T07:21:46;21.50;1.00
18741;DHT22;9499;52.472;13.448;2023-07-13T07:24:13;21.50;1.00
18741;DHT22;9499;52.472;13.448;2023-07-13T07:26:41;21.60;1.00
18741;DHT22;9499;52.472;13.448;2023-07-13T07:29:07;21.60;1.00
18741;DHT22;9499;52.472;13.448;2023-07-13T07:31:34;21.60;99.90
18741;DHT22;9499;52.472;13.448;2023-07-13T07:34:02;21.70;99.90
18741;DHT22;9499;52.472;13.448;2023-07-13T07:36:30;21.80;99.90
18741;DHT22;9499;52.472;13.448;2023-07-13T07:38:56;21.90;99.90
18741;DHT22;9499;52.472;13.448;2023-07-13T07:41:23;22.00;85.50
18741;DHT22;9499;52.472;13.448;2023-07-13T07:43:49;22.10;11.70
18741;DHT22;9499;52.472;13.448;2023-07-13T07:46:16;22.20;1.00
18741;DHT22;9499;52.472;13.448;2023-07-13T07:48:42;22.20;3.90
18741;DHT22;9499;52.472;13.448;2023-07-13T07:51:09;22.30;1.00
18741;DHT22;9499;52.472;13.448;2023-07-13T07:53:37;22.50;1.00
18741;DHT22;9499;52.472;13.448;2023-07-13T07:56:03;22.50;1.00
18741;DHT22;9499;52.472;13.448;2023-07-13T07:58:30;22.50;1.00
18741;DHT22;9499;52.472;13.448;2023-07-13T08:01:02;22.50;1.00
18741;DHT22;9499;52.472;13.448;2023-07-13T08:03:29;22.60;1.00
18741;DHT22;9499;52.472;13.448;2023-07-13T08:05:55;22.60;1.00
18741;DHT22;9499;52.472;13.448;2023-07-13T08:08:22;22.60;1.00
18741;DHT22;9499;52.472;13.448;2023-07-13T08:10:49;22.70;1.00
18741;DHT22;9499;52.472;13.448;2023-07-13T08:13:16;22.80;1.00
18741;DHT22;9499;52.472;13.448;2023-07-13T08:15:42;22.70;1.00
18741;DHT22;9499;52.472;13.448;2023-07-13T08:18:09;22.50;1.00
18741;DHT22;9499;52.472;13.448;2023-07-13T08:20:37;22.40;1.00
18741;DHT22;9499;52.472;13.448;2023-07-13T08:23:03;22.40;1.00
18741;DHT22;9499;52.472;13.448;2023-07-13T08:25:30;22.60;1.00
18741;DHT22;9499;52.472;13.448;2023-07-13T08:27:58;22.70;1.00
18741;DHT22;9499;52.472;13.448;2023-07-13T08:30:24;22.80;1.00
18741;DHT22;9499;52.472;13.448;2023-07-13T08:32:51;22.80;1.00
18741;DHT22;9499;52.472;13.448;2023-07-13T08:35:19;22.80;99.90
18741;DHT22;9499;52.472;13.448;2023-07-13T08:37:45;22.80;99.90
18741;DHT22;9499;52.472;13.448;2023-07-13T08:40:12;22.80;99.90
18741;DHT22;9499;52.472;13.448;2023-07-13T08:42:44;22.80;99.90
18741;DHT22;9499;52.472;13.448;2023-07-13T08:45:19;22.80;99.90
18741;DHT22;9499;52.472;13.448;2023-07-13T08:47:51;22.80;99.90
18741;DHT22;9499;52.472;13.448;2023-07-13T08:50:23;22.80;99.90
18741;DHT22;9499;52.472;13.448;2023-07-13T08:52:51;22.80;99.90
18741;DHT22;9499;52.472;13.448;2023-07-13T08:55:20;22.80;99.90
18741;DHT22;9499;52.472;13.448;2023-07-13T08:57:52;22.80;99.90
18741;DHT22;9499;52.472;13.448;2023-07-13T09:00:21;22.80;99.90
18741;DHT22;9499;52.472;13.448;2023-07-13T09:02:54;22.80;99.90
18741;DHT22;9499;52.472;13.448;2023-07-13T09:05:25;22.80;99.90
18741;DHT22;9499;52.472;13.448;2023-07-13T09:08:04;22.90;99.90
18741;DHT22;9499;52.472;13.448;2023-07-13T09:10:41;22.90;99.90
18741;DHT22;9499;52.472;13.448;2023-07-13T09:13:25;23.00;99.90
18741;DHT22;9499;52.472;13.448;2023-07-13T09:15:55;23.10;99.90
18741;DHT22;9499;52.472;13.448;2023-07-13T09:18:26;23.10;99.90
18741;DHT22;9499;52.472;13.448;2023-07-13T09:20:56;23.20;24.30
18741;DHT22;9499;52.472;13.448;2023-07-13T09:23:26;23.10;1.00
18741;DHT22;9499;52.472;13.448;2023-07-13T09:25:58;23.10;7.40
18741;DHT22;9499;52.472;13.448;2023-07-13T09:28:27;23.20;1.00
18741;DHT22;9499;52.472;13.448;2023-07-13T09:31:03;23.20;1.00
18741;DHT22;9499;52.472;13.448;2023-07-13T09:33:30;23.20;1.00
18741;DHT22;9499;52.472;13.448;2023-07-13T09:35:57;23.20;1.00
18741;DHT22;9499;52.472;13.448;2023-07-13T09:38:26;23.10;1.00
18741;DHT22;9499;52.472;13.448;2023-07-13T09:41:04;23.20;1.00
18741;DHT22;9499;52.472;13.448;2023-07-13T09:43:36;23.30;1.00
18741;DHT22;9499;52.472;13.448;2023-07-13T09:46:04;23.40;1.00
18741;DHT22;9499;52.472;13.448;2023-07-13T09:48:34;23.30;1.00
18741;DHT22;9499;52.472;13.448;2023-07-13T09:51:07;23.30;1.00
18741;DHT22;9499;52.472;13.448;2023-07-13T09:53:41;23.20;1.00
18741;DHT22;9499;52.472;13.448;2023-07-13T09:56:19;23.20;1.00
18741;DHT22;9499;52.472;13.448;2023-07-13T09:58:46;23.30;1.00
18741;DHT22;9499;52.472;13.448;2023-07-13T10:01:14;23.50;1.00
18741;DHT22;9499;52.472;13.448;2023-07-13T10:03:52;23.60;1.00
18741;DHT22;9499;52.472;13.448;2023-07-13T10:06:21;23.70;1.00
18741;DHT22;9499;52.472;13.448;2023-07-13T10:08:50;23.70;1.00
18741;DHT22;9499;52.472;13.448;2023-07-13T10:11:19;23.70;1.00
18741;DHT22;9499;52.472;13.448;2023-07-13T10:13:51;23.60;1.00
18741;DHT22;9499;52.472;13.448;2023-07-13T10:16:20;23.70;1.00
18741;DHT22;9499;52.472;13.448;2023-07-13T10:18:50;23.90;1.00
18741;DHT22;9499;52.472;13.448;2023-07-13T10:21:19;24.20;1.00
18741;DHT22;9499;52.472;13.448;2023-07-13T10:23:49;24.50;1.00
18741;DHT22;9499;52.472;13.448;2023-07-13T10:26:19;24.60;1.00
18741;DHT22;9499;52.472;13.448;2023-07-13T10:28:51;24.70;1.00
18741;DHT22;9499;52.472;13.448;2023-07-13T10:31:20;25.00;1.00
18741;DHT22;9499;52.472;13.448;2023-07-13T10:33:48;25.30;1.00
18741;DHT22;9499;52.472;13.448;2023-07-13T10:36:23;25.30;1.00
18741;DHT22;9499;52.472;13.448;2023-07-13T10:38:55;25.50;1.00
18741;DHT22;9499;52.472;13.448;2023-07-13T10:41:26;25.40;1.00
18741;DHT22;9499;52.472;13.448;2023-07-13T10:43:55;25.20;1.00
18741;DHT22;9499;52.472;13.448;2023-07-13T10:46:25;25.30;1.00
18741;DHT22;9499;52.472;13.448;2023-07-13T10:48:57;25.40;1.00
18741;DHT22;9499;52.472;13.448;2023-07-13T10:51:24;25.20;1.00
18741;DHT22;9499;52.472;13.448;2023-07-13T10:54:14;25.20;1.00
18741;DHT22;9499;52.472;13.448;2023-07-13T10:56:43;25.30;1.00
18741;DHT22;9499;52.472;13.448;2023-07-13T10:59:12;25.20;1.00
18741;DHT22;9499;52.472;13.448;2023-07-13T11:01:50;25.10;1.00
18741;DHT22;9499;52.472;13.448;2023-07-13T11:04:20;25.30;1.00
18741;DHT22;9499;52.472;13.448;2023-07-13T11:06:48;25.40;99.90
18741;DHT22;9499;52.472;13.448;2023-07-13T11:09:31;25.60;99.90
18741;DHT22;9499;52.472;13.448;2023-07-13T11:11:59;25.30;99.90
18741;DHT22;9499;52.472;13.448;2023-07-13T11:14:29;25.50;99.90
18741;DHT22;9499;52.472;13.448;2023-07-13T11:16:57;25.60;99.90
18741;DHT22;9499;52.472;13.448;2023-07-13T11:19:38;25.70;99.90
18741;DHT22;9499;52.472;13.448;2023-07-13T11:22:21;26.00;99.90
18741;DHT22;9499;52.472;13.448;2023-07-13T11:24:56;26.20;99.90
18741;DHT22;9499;52.472;13.448;2023-07-13T11:27:35;26.00;99.90
18741;DHT22;9499;52.472;13.448;2023-07-13T11:30:31;26.10;99.90
18741;DHT22;9499;52.472;13.448;2023-07-13T11:33:11;26.10;83.20
18741;DHT22;9499;52.472;13.448;2023-07-13T11:35:49;26.20;78.20
18741;DHT22;9499;52.472;13.448;2023-07-13T11:38:18;26.10;76.90
18741;DHT22;9499;52.472;13.448;2023-07-13T11:40:47;26.00;70.30
18741;DHT22;9499;52.472;13.448;2023-07-13T11:43:15;26.20;67.60
18741;DHT22;9499;52.472;13.448;2023-07-13T11:45:43;26.10;77.40
18741;DHT22;9499;52.472;13.448;2023-07-13T11:48:26;26.30;73.70
18741;DHT22;9499;52.472;13.448;2023-07-13T11:50:56;26.50;71.10
18741;DHT22;9499;52.472;13.448;2023-07-13T11:53:27;26.60;67.60
18741;DHT22;9499;52.472;13.448;2023-07-13T11:55:54;26.80;71.60
18741;DHT22;9499;52.472;13.448;2023-07-13T11:58:24;26.80;66.90
18741;DHT22;9499;52.472;13.448;2023-07-13T12:00:53;27.00;69.80
18741;DHT22;9499;52.472;13.448;2023-07-13T12:03:23;27.00;61.40
18741;DHT22;9499;52.472;13.448;2023-07-13T12:05:58;26.90;54.60
18741;DHT22;9499;52.472;13.448;2023-07-13T12:08:25;26.90;54.70
18741;DHT22;9499;52.472;13.448;2023-07-13T12:11:04;27.00;51.20
18741;DHT22;9499;52.472;13.448;2023-07-13T12:13:36;27.00;38.80
18741;DHT22;9499;52.472;13.448;2023-07-13T12:16:11;27.10;38.10
18741;DHT22;9499;52.472;13.448;2023-07-13T12:18:42;27.00;37.30
18741;DHT22;9499;52.472;13.448;2023-07-13T12:21:13;27.10;35.50
18741;DHT22;9499;52.472;13.448;2023-07-13T12:23:43;26.80;34.10
18741;DHT22;9499;52.472;13.448;2023-07-13T12:26:11;26.90;39.00
18741;DHT22;9499;52.472;13.448;2023-07-13T12:28:43;27.20;30.30
18741;DHT22;9499;52.472;13.448;2023-07-13T12:31:24;27.30;32.40
18741;DHT22;9499;52.472;13.448;2023-07-13T12:33:58;27.30;27.70
18741;DHT22;9499;52.472;13.448;2023-07-13T12:36:25;27.30;21.60
18741;DHT22;9499;52.472;13.448;2023-07-13T12:38:52;27.50;23.30
18741;DHT22;9499;52.472;13.448;2023-07-13T12:41:19;27.70;18.20
18741;DHT22;9499;52.472;13.448;2023-07-13T12:43:46;27.90;17.80
18741;DHT22;9499;52.472;13.448;2023-07-13T12:46:18;27.70;14.00
18741;DHT22;9499;52.472;13.448;2023-07-13T12:48:48;27.40;15.40
18741;DHT22;9499;52.472;13.448;2023-07-13T12:51:17;27.30;15.60
18741;DHT22;9499;52.472;13.448;2023-07-13T12:53:51;27.50;20.30
18741;DHT22;9499;52.472;13.448;2023-07-13T12:56:23;27.70;15.30
18741;DHT22;9499;52.472;13.448;2023-07-13T12:58:56;27.50;16.90
18741;DHT22;9499;52.472;13.448;2023-07-13T13:01:26;27.40;13.10
18741;DHT22;9499;52.472;13.448;2023-07-13T13:03:54;27.30;14.50
18741;DHT22;9499;52.472;13.448;2023-07-13T13:06:24;27.10;13.40
18741;DHT22;9499;52.472;13.448;2023-07-13T13:08:53;27.40;13.50
18741;DHT22;9499;52.472;13.448;2023-07-13T13:11:21;27.50;13.00
18741;DHT22;9499;52.472;13.448;2023-07-13T13:13:48;27.40;10.10
18741;DHT22;9499;52.472;13.448;2023-07-13T13:16:20;27.30;6.80
18741;DHT22;9499;52.472;13.448;2023-07-13T13:18:46;27.00;5.70
18741;DHT22;9499;52.472;13.448;2023-07-13T13:21:14;27.00;5.70
18741;DHT22;9499;52.472;13.448;2023-07-13T13:23:42;26.90;8.50
18741;DHT22;9499;52.472;13.448;2023-07-13T13:26:11;26.80;12.90
18741;DHT22;9499;52.472;13.448;2023-07-13T13:28:38;26.90;13.80
18741;DHT22;9499;52.472;13.448;2023-07-13T13:31:04;27.00;14.30
18741;DHT22;9499;52.472;13.448;2023-07-13T13:33:31;27.30;14.30
18741;DHT22;9499;52.472;13.448;2023-07-13T13:35:58;27.30;12.80
18741;DHT22;9499;52.472;13.448;2023-07-13T13:38:26;27.30;25.80
18741;DHT22;9499;52.472;13.448;2023-07-13T13:40:54;27.00;1.60
18741;DHT22;9499;52.472;13.448;2023-07-13T13:43:23;26.90;2.20
18741;DHT22;9499;52.472;13.448;2023-07-13T13:45:52;27.10;3.50
18741;DHT22;9499;52.472;13.448;2023-07-13T13:48:29;27.20;6.60
18741;DHT22;9499;52.472;13.448;2023-07-13T13:50:57;27.10;2.60
18741;DHT22;9499;52.472;13.448;2023-07-13T13:53:25;27.00;1.10
18741;DHT22;9499;52.472;13.448;2023-07-13T13:55:52;27.30;1.00
18741;DHT22;9499;52.472;13.448;2023-07-13T13:58:20;27.30;2.20
18741;DHT22;9499;52.472;13.448;2023-07-13T14:00:47;27.40;1.00
18741;DHT22;9499;52.472;13.448;2023-07-13T14:03:16;27.40;1.00
18741;DHT22;9499;52.472;13.448;2023-07-13T14:05:43;27.00;2.40
18741;DHT22;9499;52.472;13.448;2023-07-13T14:08:13;27.20;4.80
18741;DHT22;9499;52.472;13.448;2023-07-13T14:10:40;27.00;1.70
18741;DHT22;9499;52.472;13.448;2023-07-13T14:13:15;27.00;2.40
18741;DHT22;9499;52.472;13.448;2023-07-13T14:15:45;27.20;2.00
18741;DHT22;9499;52.472;13.448;2023-07-13T14:18:12;27.30;1.00
18741;DHT22;9499;52.472;13.448;2023-07-13T14:20:43;27.10;1.00
18741;DHT22;9499;52.472;13.448;2023-07-13T14:23:09;27.00;1.00
18741;DHT22;9499;52.472;13.448;2023-07-13T14:25:36;26.90;2.50
18741;DHT22;9499;52.472;13.448;2023-07-13T14:28:15;27.00;1.00
18741;DHT22;9499;52.472;13.448;2023-07-13T14:30:46;27.10;1.00
18741;DHT22;9499;52.472;13.448;2023-07-13T14:33:12;27.00;1.00
18741;DHT22;9499;52.472;13.448;2023-07-13T14:35:39;27.20;1.00
18741;DHT22;9499;52.472;13.448;2023-07-13T14:38:09;27.00;1.00
18741;DHT22;9499;52.472;13.448;2023-07-13T14:40:36;27.10;1.00
18741;DHT22;9499;52.472;13.448;2023-07-13T14:43:03;27.20;1.00
18741;DHT22;9499;52.472;13.448;2023-07-13T14:45:30;27.00;1.00
18741;DHT22;9499;52.472;13.448;2023-07-13T14:47:58;27.10;1.00
18741;DHT22;9499;52.472;13.448;2023-07-13T14:50:30;27.20;1.00
18741;DHT22;9499;52.472;13.448;2023-07-13T14:52:57;27.40;1.00
18741;DHT22;9499;52.472;13.448;2023-07-13T14:55:24;27.50;1.00
18741;DHT22;9499;52.472;13.448;2023-07-13T14:57:52;27.70;1.00
18741;DHT22;9499;52.472;13.448;2023-07-13T15:00:20;27.90;1.00
18741;DHT22;9499;52.472;13.448;2023-07-13T15:02:50;27.90;1.00
18741;DHT22;9499;52.472;13.448;2023-07-13T15:05:21;27.90;1.00
18741;DHT22;9499;52.472;13.448;2023-07-13T15:07:49;27.80;1.00
18741;DHT22;9499;52.472;13.448;2023-07-13T15:10:17;27.90;1.00
18741;DHT22;9499;52.472;13.448;2023-07-13T15:12:44;27.90;1.00
18741;DHT22;9499;52.472;13.448;2023-07-13T15:15:11;27.80;1.00
18741;DHT22;9499;52.472;13.448;2023-07-13T15:17:40;27.70;1.00
18741;DHT22;9499;52.472;13.448;2023-07-13T15:20:17;27.80;1.00
18741;DHT22;9499;52.472;13.448;2023-07-13T15:22:46;27.80;1.00
18741;DHT22;9499;52.472;13.448;2023-07-13T15:25:16;28.10;1.00
18741;DHT22;9499;52.472;13.448;2023-07-13T15:27:42;28.30;1.00
18741;DHT22;9499;52.472;13.448;2023-07-13T15:30:10;28.30;1.00
18741;DHT22;9499;52.472;13.448;2023-07-13T15:32:36;28.20;1.00
18741;DHT22;9499;52.472;13.448;2023-07-13T15:35:03;27.80;1.00
18741;DHT22;9499;52.472;13.448;2023-07-13T15:37:30;27.80;1.00
18741;DHT22;9499;52.472;13.448;2023-07-13T15:39:57;27.70;1.00
18741;DHT22;9499;52.472;13.448;2023-07-13T15:42:25;27.70;1.00
18741;DHT22;9499;52.472;13.448;2023-07-13T15:44:51;27.70;1.00
18741;DHT22;9499;52.472;13.448;2023-07-13T15:47:18;27.90;1.00
18741;DHT22;9499;52.472;13.448;2023-07-13T15:49:45;27.90;1.00